Time;durP1;ratioP1;P1;durP2;ratioP2;P2;SDS_P1;SDS_P2;PMS_P1;PMS_P2;Temp;Humidity;BMP_temperature;BMP_pressure;BME280_temperature;BME280_humidity;BME280_pressure;Samples;Min_cycle;Max_cycle;Signal;HPM_P1;HPM_P2
2022/07/21 00:01:34;;;;;;;7.80;3.60;;;;;;;;;;5031612;28;20067;-73
2022/07/21 00:04:00;;;;;;;9.82;3.50;;;;;;;;;;5031803;28;20100;-73
2022/07/21 00:06:26;;;;;;;8.35;4.30;;;;;;;;;;5031020;28;20017;-73
2022/07/21 00:08:52;;;;;;;9.43;4.03;;;;;;;;;;5031353;28;20042;-73
2022/07/21 00:11:18;;;;;;;9.95;3.88;;;;;;;;;;5031381;28;20381;-73
2022/07/21 00:13:45;;;;;;;14.55;4.82;;;;;;;;;;5031316;28;20017;-73
2022/07/21 00:16:11;;;;;;;10.90;5.97;;;;;;;;;;5031676;28;20021;-74
2022/07/21 00:18:37;;;;;;;14.50;6.00;;;;;;;;;;5030247;28;20026;-73
2022/07/21 00:21:03;;;;;;;11.25;6.00;;;;;;;;;;5019058;28;20088;-74
2022/07/21 00:23:29;;;;;;;12.38;5.50;;;;;;;;;;5031473;28;20025;-73
2022/07/21 00:25:55;;;;;;;10.98;5.40;;;;;;;;;;5030924;28;20021;-73
2022/07/21 00:28:22;;;;;;;34.60;7.18;;;;;;;;;;5031686;28;20108;-73
2022/07/21 00:30:48;;;;;;;14.57;6.85;;;;;;;;;;5031482;28;20105;-73
2022/07/21 00:33:14;;;;;;;12.60;5.50;;;;;;;;;;5030054;28;20485;-73
2022/07/21 00:35:40;;;;;;;15.45;8.43;;;;;;;;;;5031296;28;20067;-74
2022/07/21 00:38:06;;;;;;;13.57;7.25;;;;;;;;;;5022640;28;20072;-73
2022/07/21 00:40:32;;;;;;;10.80;5.47;;;;;;;;;;5030208;28;20032;-74
2022/07/21 00:42:58;;;;;;;12.77;6.80;;;;;;;;;;5031304;28;20017;-73
2022/07/21 00:45:24;;;;;;;10.55;5.82;;;;;;;;;;5031317;28;20029;-75
2022/07/21 00:47:51;;;;;;;11.85;4.97;;;;;;;;;;5031105;28;20060;-76
2022/07/21 00:50:18;;;;;;;13.90;6.25;;;;;;;;;;5030698;28;20026;-76
2022/07/21 00:52:47;;;;;;;12.57;5.80;;;;;;;;;;5031473;28;20025;-75
2022/07/21 00:55:14;;;;;;;15.95;5.15;;;;;;;;;;5030743;28;20025;-75
2022/07/21 00:57:41;;;;;;;14.48;4.70;;;;;;;;;;5030341;28;20028;-76
2022/07/21 01:00:09;;;;;;;14.27;4.43;;;;;;;;;;5028701;28;20423;-75
2022/07/21 01:02:36;;;;;;;11.70;4.45;;;;;;;;;;5030216;28;20021;-75
2022/07/21 01:05:06;;;;;;;12.10;4.20;;;;;;;;;;5030274;28;20104;-75
2022/07/21 01:07:32;;;;;;;6.90;4.28;;;;;;;;;;5030767;28;20100;-75
2022/07/21 01:09:58;;;;;;;10.57;4.15;;;;;;;;;;5028727;28;20099;-75
2022/07/21 01:12:25;;;;;;;8.40;4.70;;;;;;;;;;5031095;28;20095;-75
2022/07/21 01:14:51;;;;;;;6.63;4.75;;;;;;;;;;5031167;28;20476;-75
2022/07/21 01:17:17;;;;;;;8.73;3.75;;;;;;;;;;5031916;28;20116;-75
2022/07/21 01:19:43;;;;;;;7.53;3.58;;;;;;;;;;5033744;28;20029;-75
2022/07/21 01:22:10;;;;;;;8.07;3.95;;;;;;;;;;5034210;28;20492;-75
2022/07/21 01:24:36;;;;;;;27.25;4.30;;;;;;;;;;5034677;28;20097;-75
2022/07/21 01:27:02;;;;;;;8.63;5.00;;;;;;;;;;5033201;28;20117;-75
2022/07/21 01:29:28;;;;;;;6.57;4.38;;;;;;;;;;5033569;28;20064;-74
2022/07/21 01:31:54;;;;;;;17.35;5.30;;;;;;;;;;5034672;28;20033;-75
2022/07/21 01:34:20;;;;;;;9.07;5.03;;;;;;;;;;5034170;28;20096;-75
2022/07/21 01:36:46;;;;;;;9.00;4.25;;;;;;;;;;5031381;28;20374;-75
2022/07/21 01:41:57;;;;;;;6.93;4.53;;;;;;;;;;5032461;28;20036;-75
2022/07/21 01:44:23;;;;;;;13.32;6.45;;;;;;;;;;5033789;28;20022;-75
2022/07/21 01:46:50;;;;;;;10.63;5.85;;;;;;;;;;5033415;28;20080;-75
2022/07/21 01:49:17;;;;;;;9.98;5.55;;;;;;;;;;5033145;28;20030;-75
2022/07/21 01:51:44;;;;;;;10.82;4.88;;;;;;;;;;5033947;28;20084;-77
2022/07/21 01:54:11;;;;;;;7.10;4.78;;;;;;;;;;5033679;28;20048;-78
2022/07/21 01:56:38;;;;;;;12.57;4.20;;;;;;;;;;5021149;28;20021;-79
2022/07/21 01:59:04;;;;;;;8.60;4.40;;;;;;;;;;5033530;28;20021;-77
2022/07/21 02:01:31;;;;;;;9.68;4.60;;;;;;;;;;5029559;28;20105;-79
2022/07/21 02:03:58;;;;;;;7.40;4.07;;;;;;;;;;5032152;28;20024;-78
2022/07/21 02:06:25;;;;;;;9.18;4.22;;;;;;;;;;5032077;28;20033;-80
2022/07/21 02:08:51;;;;;;;12.50;4.25;;;;;;;;;;5030403;28;20037;-78
2022/07/21 02:11:17;;;;;;;7.82;3.28;;;;;;;;;;5032002;28;20116;-78
2022/07/21 02:13:43;;;;;;;9.35;4.78;;;;;;;;;;5033504;28;20022;-79
2022/07/21 02:16:10;;;;;;;11.95;4.78;;;;;;;;;;5034074;28;20052;-77
2022/07/21 02:18:36;;;;;;;5.93;4.15;;;;;;;;;;5032614;28;20467;-78
2022/07/21 02:21:02;;;;;;;12.52;4.88;;;;;;;;;;5031837;28;20112;-78
2022/07/21 02:23:28;;;;;;;8.10;3.92;;;;;;;;;;5031559;28;20053;-78
2022/07/21 02:25:54;;;;;;;10.63;4.32;;;;;;;;;;5031812;28;20071;-77
2022/07/21 02:28:20;;;;;;;7.75;4.38;;;;;;;;;;5032005;28;20023;-78
2022/07/21 02:30:46;;;;;;;10.93;4.50;;;;;;;;;;5032862;28;20087;-78
2022/07/21 02:33:13;;;;;;;13.90;3.95;;;;;;;;;;5031912;28;20014;-78
2022/07/21 02:35:40;;;;;;;8.90;4.38;;;;;;;;;;5032172;28;20100;-78
2022/07/21 02:38:06;;;;;;;7.10;4.43;;;;;;;;;;5031764;28;20075;-79
2022/07/21 02:40:32;;;;;;;11.02;5.25;;;;;;;;;;5032136;28;20029;-78
2022/07/21 02:42:58;;;;;;;8.93;4.72;;;;;;;;;;5031533;28;20021;-77
2022/07/21 02:45:24;;;;;;;10.75;5.20;;;;;;;;;;5032026;28;20041;-79
2022/07/21 02:47:55;;;;;;;10.15;4.38;;;;;;;;;;5031880;28;20060;-78
2022/07/21 02:50:22;;;;;;;6.80;3.47;;;;;;;;;;5034697;28;20136;-78
2022/07/21 02:52:48;;;;;;;12.90;4.78;;;;;;;;;;5032989;28;20093;-80
2022/07/21 02:55:14;;;;;;;10.77;4.45;;;;;;;;;;5031684;28;20060;-79
2022/07/21 02:57:40;;;;;;;12.70;4.38;;;;;;;;;;5031774;28;20499;-79
2022/07/21 03:00:08;;;;;;;8.40;4.45;;;;;;;;;;5031451;28;20433;-79
2022/07/21 03:02:34;;;;;;;14.23;4.88;;;;;;;;;;5031665;28;20022;-79
2022/07/21 03:05:00;;;;;;;13.75;4.65;;;;;;;;;;5032640;28;20018;-78
2022/07/21 03:07:26;;;;;;;8.63;5.22;;;;;;;;;;5031387;28;20017;-78
2022/07/21 03:09:52;;;;;;;10.18;4.70;;;;;;;;;;5031794;28;20041;-79
2022/07/21 03:12:18;;;;;;;11.93;4.80;;;;;;;;;;5032584;28;20171;-78
2022/07/21 03:14:44;;;;;;;8.63;4.90;;;;;;;;;;5032291;28;20056;-77
2022/07/21 03:17:10;;;;;;;8.02;4.75;;;;;;;;;;5032308;28;20076;-77
2022/07/21 03:19:37;;;;;;;9.60;4.97;;;;;;;;;;5032219;28;20083;-78
2022/07/21 03:22:03;;;;;;;12.98;4.70;;;;;;;;;;5032531;28;20025;-78
2022/07/21 03:24:29;;;;;;;10.25;5.45;;;;;;;;;;5032455;28;20382;-79
2022/07/21 03:26:56;;;;;;;16.67;4.80;;;;;;;;;;5033078;28;20009;-76
2022/07/21 03:29:22;;;;;;;17.55;5.80;;;;;;;;;;5033274;28;20029;-77
2022/07/21 03:31:48;;;;;;;8.18;4.90;;;;;;;;;;5026262;28;20120;-76
2022/07/21 03:34:14;;;;;;;11.18;5.20;;;;;;;;;;5023450;28;20029;-78
2022/07/21 03:36:40;;;;;;;11.70;5.10;;;;;;;;;;5030638;28;20018;-79
2022/07/21 03:39:06;;;;;;;10.00;4.78;;;;;;;;;;5032048;28;20045;-78
2022/07/21 03:41:32;;;;;;;16.45;5.25;;;;;;;;;;5029838;28;20032;-77
2022/07/21 03:43:58;;;;;;;6.75;4.40;;;;;;;;;;5032145;28;20022;-77
2022/07/21 03:46:24;;;;;;;8.98;5.13;;;;;;;;;;5031569;28;20095;-78
2022/07/21 03:48:50;;;;;;;16.33;5.63;;;;;;;;;;5030639;28;20473;-77
2022/07/21 03:51:16;;;;;;;11.75;5.90;;;;;;;;;;5030209;28;20038;-79
2022/07/21 03:53:42;;;;;;;8.63;5.07;;;;;;;;;;5033702;28;20032;-77
2022/07/21 03:56:08;;;;;;;9.98;4.80;;;;;;;;;;5031854;28;20100;-78
2022/07/21 03:58:34;;;;;;;14.38;5.63;;;;;;;;;;5030356;28;20021;-78
2022/07/21 04:01:00;;;;;;;11.50;5.35;;;;;;;;;;5031645;28;20025;-81
2022/07/21 04:03:26;;;;;;;15.57;6.53;;;;;;;;;;5016841;28;20025;-75
2022/07/21 04:05:52;;;;;;;13.13;6.78;;;;;;;;;;5031659;28;20105;-77
2022/07/21 04:08:18;;;;;;;11.65;7.20;;;;;;;;;;5031038;28;20057;-76
2022/07/21 04:10:45;;;;;;;14.30;6.30;;;;;;;;;;5017944;28;20480;-76
2022/07/21 04:13:12;;;;;;;17.00;7.10;;;;;;;;;;5031906;28;20083;-77
2022/07/21 04:15:38;;;;;;;20.50;8.63;;;;;;;;;;5025908;28;20098;-76
2022/07/21 04:18:05;;;;;;;13.40;6.05;;;;;;;;;;5022386;28;20029;-77
2022/07/21 04:20:31;;;;;;;17.52;6.75;;;;;;;;;;5028962;28;20133;-76
2022/07/21 04:22:57;;;;;;;18.02;7.45;;;;;;;;;;5020738;28;20021;-77
2022/07/21 04:25:24;;;;;;;20.92;7.50;;;;;;;;;;5031430;28;20022;-77
2022/07/21 04:27:50;;;;;;;19.02;7.72;;;;;;;;;;5031903;28;20100;-76
2022/07/21 04:30:18;;;;;;;16.02;5.47;;;;;;;;;;5030441;28;20026;-76
2022/07/21 04:32:45;;;;;;;16.65;6.18;;;;;;;;;;5031194;28;20031;-77
2022/07/21 04:35:11;;;;;;;15.85;5.93;;;;;;;;;;5030347;28;20036;-77
2022/07/21 04:37:37;;;;;;;16.88;5.90;;;;;;;;;;5030894;28;20607;-76
2022/07/21 04:40:04;;;;;;;10.25;5.40;;;;;;;;;;5030945;28;20029;-77
2022/07/21 04:42:31;;;;;;;10.68;5.40;;;;;;;;;;5031374;28;20076;-78
2022/07/21 04:44:57;;;;;;;14.57;5.65;;;;;;;;;;5031316;28;20089;-77
2022/07/21 04:47:23;;;;;;;9.90;5.57;;;;;;;;;;5031237;28;20101;-79
2022/07/21 04:49:49;;;;;;;14.00;5.88;;;;;;;;;;5031201;28;20021;-76
2022/07/21 04:52:15;;;;;;;10.38;5.25;;;;;;;;;;5033248;28;20396;-76
2022/07/21 04:54:41;;;;;;;7.65;5.60;;;;;;;;;;5033913;28;20028;-76
2022/07/21 04:57:08;;;;;;;15.38;6.05;;;;;;;;;;5035466;28;20063;-76
2022/07/21 04:59:34;;;;;;;14.20;5.95;;;;;;;;;;5035085;28;20021;-77
2022/07/21 05:02:01;;;;;;;25.10;6.53;;;;;;;;;;5033779;28;20022;-76
2022/07/21 05:04:27;;;;;;;10.15;5.25;;;;;;;;;;5035052;28;20033;-76
2022/07/21 05:06:53;;;;;;;14.68;6.00;;;;;;;;;;5034817;28;20028;-76
2022/07/21 05:09:19;;;;;;;15.48;6.30;;;;;;;;;;5035104;28;20050;-75
2022/07/21 05:11:45;;;;;;;14.57;6.63;;;;;;;;;;5034628;28;20040;-76
2022/07/21 05:14:11;;;;;;;14.38;5.95;;;;;;;;;;5034753;28;20032;-78
2022/07/21 05:16:37;;;;;;;13.60;6.10;;;;;;;;;;5034724;28;20107;-76
2022/07/21 05:19:03;;;;;;;20.70;8.68;;;;;;;;;;5033164;28;20414;-75
2022/07/21 05:21:29;;;;;;;14.57;8.68;;;;;;;;;;5034236;28;20492;-77
2022/07/21 05:23:56;;;;;;;30.88;8.90;;;;;;;;;;5020122;28;20147;-76
2022/07/21 05:26:22;;;;;;;25.08;8.32;;;;;;;;;;5034734;28;20026;-75
2022/07/21 05:28:48;;;;;;;9.95;6.07;;;;;;;;;;5021387;28;20044;-76
2022/07/21 05:31:14;;;;;;;20.23;7.55;;;;;;;;;;5034152;28;20495;-77
2022/07/21 05:33:40;;;;;;;15.82;6.75;;;;;;;;;;5021407;28;20123;-77
2022/07/21 05:36:06;;;;;;;17.48;7.05;;;;;;;;;;5033037;28;20997;-77
2022/07/21 05:38:32;;;;;;;13.57;5.70;;;;;;;;;;5034506;28;20093;-77
2022/07/21 05:41:05;;;;;;;19.65;6.22;;;;;;;;;;5033844;28;20025;-77
2022/07/21 05:43:31;;;;;;;12.57;6.35;;;;;;;;;;5026008;28;20093;-76
2022/07/21 05:45:57;;;;;;;11.85;5.22;;;;;;;;;;5014900;28;20026;-76
2022/07/21 05:48:23;;;;;;;12.77;5.10;;;;;;;;;;5021210;28;20025;-76
2022/07/21 05:50:49;;;;;;;15.57;6.00;;;;;;;;;;5037023;28;20040;-76
2022/07/21 05:53:15;;;;;;;16.52;6.00;;;;;;;;;;5034179;28;20021;-76
2022/07/21 05:55:42;;;;;;;21.25;6.65;;;;;;;;;;5033132;28;20412;-76
2022/07/21 05:58:08;;;;;;;18.00;6.07;;;;;;;;;;5050155;28;20037;-77
2022/07/21 06:00:34;;;;;;;26.02;5.78;;;;;;;;;;5033962;28;20100;-77
2022/07/21 06:03:00;;;;;;;15.23;5.40;;;;;;;;;;5032818;28;20083;-76
2022/07/21 06:05:26;;;;;;;16.60;5.22;;;;;;;;;;5033837;28;20063;-76
2022/07/21 06:07:52;;;;;;;18.92;6.22;;;;;;;;;;5032158;28;20048;-76
2022/07/21 06:10:18;;;;;;;17.55;6.55;;;;;;;;;;5019766;28;20410;-76
2022/07/21 06:12:46;;;;;;;18.90;6.20;;;;;;;;;;5033729;28;20126;-75
2022/07/21 06:15:13;;;;;;;19.98;6.80;;;;;;;;;;5034553;28;20083;-77
2022/07/21 06:17:43;;;;;;;15.13;6.28;;;;;;;;;;5032155;28;20552;-76
2022/07/21 06:20:10;;;;;;;18.60;6.82;;;;;;;;;;5019968;28;20482;-77
2022/07/21 06:22:37;;;;;;;24.58;6.10;;;;;;;;;;5019779;28;20056;-77
2022/07/21 06:25:03;;;;;;;22.63;6.10;;;;;;;;;;5033311;28;20025;-76
2022/07/21 06:27:31;;;;;;;15.57;5.95;;;;;;;;;;5033019;28;20021;-77
2022/07/21 06:29:58;;;;;;;17.25;6.28;;;;;;;;;;5029893;28;20014;-77
2022/07/21 06:32:25;;;;;;;12.38;5.55;;;;;;;;;;5033011;28;20033;-77
2022/07/21 06:34:51;;;;;;;18.80;7.05;;;;;;;;;;5030484;28;20021;-76
2022/07/21 06:37:17;;;;;;;14.10;5.75;;;;;;;;;;5031267;28;20108;-76
2022/07/21 06:39:43;;;;;;;19.65;5.65;;;;;;;;;;5032758;28;20022;-76
2022/07/21 06:42:10;;;;;;;21.35;5.95;;;;;;;;;;5032950;28;20554;-76
2022/07/21 06:44:36;;;;;;;15.63;5.20;;;;;;;;;;5032691;28;20022;-76
2022/07/21 06:47:04;;;;;;;13.18;5.30;;;;;;;;;;5031188;28;20021;-78
2022/07/21 06:49:31;;;;;;;17.02;6.80;;;;;;;;;;5031864;28;20036;-77
2022/07/21 06:51:57;;;;;;;21.92;12.32;;;;;;;;;;5032358;28;20138;-76
2022/07/21 06:54:23;;;;;;;21.10;7.65;;;;;;;;;;5032119;28;20386;-75
2022/07/21 06:56:49;;;;;;;17.10;6.60;;;;;;;;;;5032021;28;20025;-75
2022/07/21 06:59:15;;;;;;;17.83;6.15;;;;;;;;;;5033074;28;20025;-76
2022/07/21 07:01:41;;;;;;;13.63;5.65;;;;;;;;;;5037392;28;20108;-76
2022/07/21 07:04:08;;;;;;;15.05;5.63;;;;;;;;;;5032501;28;20068;-76
2022/07/21 07:06:34;;;;;;;22.38;6.30;;;;;;;;;;5032329;28;20025;-76
2022/07/21 07:09:00;;;;;;;14.18;5.20;;;;;;;;;;5032131;28;20049;-78
2022/07/21 07:11:26;;;;;;;20.10;6.13;;;;;;;;;;5032173;28;20044;-77
2022/07/21 07:13:52;;;;;;;11.40;5.15;;;;;;;;;;5030869;28;20080;-76
2022/07/21 07:16:18;;;;;;;25.92;6.90;;;;;;;;;;5032270;28;20060;-76
2022/07/21 07:18:44;;;;;;;19.15;5.93;;;;;;;;;;5032413;28;20499;-76
2022/07/21 07:21:10;;;;;;;19.42;7.22;;;;;;;;;;5031821;28;20033;-76
2022/07/21 07:23:36;;;;;;;27.27;5.85;;;;;;;;;;5031049;28;20037;-76
2022/07/21 07:26:02;;;;;;;21.48;6.13;;;;;;;;;;5032274;28;20096;-76
2022/07/21 07:28:28;;;;;;;20.65;5.75;;;;;;;;;;5032214;28;20029;-76
2022/07/21 07:30:54;;;;;;;17.05;5.85;;;;;;;;;;5032090;28;20560;-76
2022/07/21 07:33:21;;;;;;;13.82;5.25;;;;;;;;;;5026661;28;20029;-75
2022/07/21 07:35:47;;;;;;;14.60;5.15;;;;;;;;;;5022162;28;20021;-77
2022/07/21 07:38:14;;;;;;;12.40;6.10;;;;;;;;;;5017912;28;20025;-77
2022/07/21 07:40:40;;;;;;;14.70;5.18;;;;;;;;;;5018727;28;20049;-76
2022/07/21 07:43:07;;;;;;;17.30;5.07;;;;;;;;;;5017104;28;20018;-76
2022/07/21 07:45:34;;;;;;;11.88;4.40;;;;;;;;;;5032117;28;20532;-75
2022/07/21 07:48:00;;;;;;;10.02;4.20;;;;;;;;;;5030909;28;20067;-76
2022/07/21 07:50:26;;;;;;;11.88;4.22;;;;;;;;;;5032180;28;20026;-75
2022/07/21 07:52:54;;;;;;;15.93;4.78;;;;;;;;;;5017661;28;20080;-75
2022/07/21 07:55:20;;;;;;;11.63;5.00;;;;;;;;;;5015685;28;20160;-76
2022/07/21 07:57:46;;;;;;;15.30;5.05;;;;;;;;;;5030103;28;20075;-77
2022/07/21 08:00:15;;;;;;;10.82;4.40;;;;;;;;;;5031187;28;20064;-76
2022/07/21 08:02:43;;;;;;;12.40;4.88;;;;;;;;;;5030300;28;20022;-76
2022/07/21 08:05:10;;;;;;;11.02;4.35;;;;;;;;;;5029000;28;20377;-77
2022/07/21 08:07:37;;;;;;;9.73;4.63;;;;;;;;;;5020345;28;20109;-76
2022/07/21 08:10:05;;;;;;;6.80;3.95;;;;;;;;;;5017033;28;20053;-76
2022/07/21 08:12:31;;;;;;;9.20;4.57;;;;;;;;;;5036417;28;20179;-76
2022/07/21 08:14:57;;;;;;;9.68;4.40;;;;;;;;;;5031733;28;20096;-74
2022/07/21 08:17:23;;;;;;;11.57;3.70;;;;;;;;;;5031237;28;20030;-75
2022/07/21 08:19:49;;;;;;;7.40;3.75;;;;;;;;;;5029868;28;20392;-76
2022/07/21 08:22:15;;;;;;;8.00;3.63;;;;;;;;;;5030829;28;20431;-75
2022/07/21 08:24:41;;;;;;;7.35;3.63;;;;;;;;;;5031604;28;20033;-75
2022/07/21 08:27:07;;;;;;;6.95;3.55;;;;;;;;;;5016828;28;20105;-76
2022/07/21 08:29:34;;;;;;;4.80;2.70;;;;;;;;;;5031265;28;20057;-76
2022/07/21 08:32:00;;;;;;;8.63;3.15;;;;;;;;;;5029948;28;20440;-75
2022/07/21 08:34:27;;;;;;;6.95;3.72;;;;;;;;;;5017292;28;20029;-77
2022/07/21 08:36:53;;;;;;;5.97;3.10;;;;;;;;;;5023466;28;20017;-77
2022/07/21 08:39:19;;;;;;;7.75;3.60;;;;;;;;;;5024089;28;20025;-75
2022/07/21 08:41:45;;;;;;;6.28;3.38;;;;;;;;;;5031415;28;20021;-75
2022/07/21 08:44:11;;;;;;;10.23;3.55;;;742.50;384.00;;;;;;5030864;28;20144;-75
2022/07/21 08:46:42;;;;;;;6.35;3.22;;;742.40;384.00;;;;;;5031057;28;20124;-74
2022/07/21 08:49:09;;;;;;;5.47;2.53;;;;;;;;;;5030946;28;20481;-76
2022/07/21 08:51:35;;;;;;;6.05;3.13;;;;;;;;;;5029603;28;20124;-75
2022/07/21 08:54:04;;;;;;;13.80;4.32;;;;;;;;;;5029861;28;20018;-76
2022/07/21 08:56:30;;;;;;;8.80;3.45;;;;;;;;;;5031348;28;20105;-74
2022/07/21 08:58:56;;;;;;;3.72;2.80;;;;;;;;;;5031209;28;20025;-75
2022/07/21 09:01:23;;;;;;;6.07;3.05;;;;;;;;;;5030403;28;20092;-76
2022/07/21 09:03:50;;;;;;;8.35;3.67;;;;;;;;;;5031444;28;20092;-76
2022/07/21 09:06:16;;;;;;;4.10;2.70;;;;;;;;;;5033386;28;20030;-76
2022/07/21 09:08:50;;;;;;;5.97;3.08;;;;;;;;;;5031479;28;20072;-76
2022/07/21 09:11:19;;;;;;;9.90;2.92;;;;;;;;;;5029547;28;20037;-76
2022/07/21 09:13:46;;;;;;;7.18;3.10;;;;;;;;;;5030778;28;20527;-77
2022/07/21 09:16:13;;;;;;;6.32;2.80;;;;;;;;;;5029753;28;20022;-76
2022/07/21 09:18:49;;;;;;;9.18;3.00;;;;;;;;;;5030102;28;20112;-76
2022/07/21 09:21:16;;;;;;;5.30;2.92;;;;;;;;;;5029797;28;20026;-77
2022/07/21 09:23:42;;;;;;;5.85;2.97;;;;;;;;;;5035552;28;20033;-76
2022/07/21 09:26:09;;;;;;;5.40;3.00;;;;;;;;;;5029784;28;20143;-76
2022/07/21 09:28:35;;;;;;;9.57;3.00;;;;;;;;;;5029500;28;20400;-75
2022/07/21 09:31:02;;;;;;;8.25;3.17;;;;;;;;;;5029485;28;20408;-75
2022/07/21 09:33:33;;;;;;;5.70;2.92;;;;;;;;;;5030889;28;20032;-75
2022/07/21 09:36:01;;;;;;;8.98;3.10;;;;;;;;;;5029402;28;20026;-77
2022/07/21 09:38:28;;;;;;;9.35;3.63;;;;;;;;;;5031638;28;20033;-76
2022/07/21 09:40:56;;;;;;;7.22;3.30;;;;;;;;;;5032481;28;20029;-76
2022/07/21 09:43:41;;;;;;;4.85;3.03;;;;;;;;;;5025446;28;20042;-76
2022/07/21 09:46:12;;;;;;;4.78;3.08;;;;;;;;;;5029865;28;20092;-77
2022/07/21 09:48:40;;;;;;;10.05;2.60;;;;;;;;;;5020095;28;20392;-75
2022/07/21 09:51:26;;;;;;;6.00;2.70;;;;;;;;;;5027981;28;20026;-76
2022/07/21 09:54:03;;;;;;;7.47;2.80;;;;;;;;;;5028416;28;20099;-74
2022/07/21 09:56:31;;;;;;;4.60;3.30;;;;;;;;;;5034060;28;20028;-76
2022/07/21 09:58:58;;;;;;;6.68;2.72;;;;;;;;;;5033163;28;20092;-76
2022/07/21 10:01:25;;;;;;;8.57;4.18;;;;;;;;;;5020570;28;20052;-75
2022/07/21 10:03:52;;;;;;;8.52;2.80;;;;;;;;;;5025482;28;20021;-75
2022/07/21 10:06:19;;;;;;;10.77;3.90;;;;;;;;;;5033728;28;20021;-76
2022/07/21 10:08:45;;;;;;;5.93;2.78;;;;;;;;;;5031827;28;20056;-77
2022/07/21 10:11:12;;;;;;;5.88;2.97;;;;;;;;;;5032220;28;20037;-75
2022/07/21 10:13:40;;;;;;;5.40;2.78;;;;;;;;;;5033262;28;20458;-74
2022/07/21 10:16:06;;;;;;;6.13;3.20;;;;;;;;;;5033446;28;20032;-76
2022/07/21 10:18:43;;;;;;;5.85;2.70;;;;;;;;;;5033250;28;20017;-76
2022/07/21 10:21:29;;;;;;;8.40;3.13;;;;;;;;;;5031308;28;20488;-76
2022/07/21 10:23:55;;;;;;;3.72;2.42;;;;;;;;;;5032486;28;20018;-76
2022/07/21 10:26:22;;;;;;;5.65;2.50;;;;;;;;;;5033181;28;20029;-76
2022/07/21 10:28:49;;;;;;;6.03;3.08;;;;;;;;;;5033276;28;20070;-77
2022/07/21 10:31:27;;;;;;;4.80;3.10;;;;;;;;;;5021041;28;20064;-76
2022/07/21 10:33:54;;;;;;;11.45;3.00;;;;;;;;;;5036269;28;20120;-76
2022/07/21 10:36:31;;;;;;;8.07;5.10;;;;;;;;;;5032837;28;20026;-77
2022/07/21 10:39:23;;;;;;;5.47;3.22;;;;;;;;;;5030491;28;20022;-76
2022/07/21 10:41:50;;;;;;;7.40;2.75;;;;;;;;;;5028594;28;20049;-75
2022/07/21 10:44:37;;;;;;;4.85;3.20;;;;;;;;;;5029911;28;20052;-75
2022/07/21 10:47:04;;;;;;;5.30;2.70;;;;;;;;;;5020177;28;20125;-76
2022/07/21 10:49:49;;;;;;;9.63;2.65;;;;;;;;;;5031935;28;20032;-74
2022/07/21 10:52:34;;;;;;;7.50;2.90;;;;;;;;;;5031632;28;20488;-75
2022/07/21 10:55:17;;;;;;;8.18;2.95;;;;;;;;;;5029682;28;20036;-76
2022/07/21 10:57:42;;;;;;;;;;;;;;;;;;5022726;28;20025;-76
2022/07/21 11:00:21;;;;;;;9.82;3.72;;;;;;;;;;5030617;28;20288;-76
2022/07/21 11:02:48;;;;;;;8.43;3.67;;;;;;;;;;5032161;28;20022;-75
2022/07/21 11:05:14;;;;;;;10.38;4.43;;;;;;;;;;5030255;28;20021;-75
2022/07/21 11:07:59;;;;;;;6.53;3.35;;;;;;;;;;5031598;28;20143;-76
2022/07/21 11:10:26;;;;;;;7.22;2.75;;;;;;;;;;5031306;28;20034;-76
2022/07/21 11:12:55;;;;;;;6.55;3.35;;;;;;;;;;5029412;28;20026;-75
2022/07/21 11:15:40;;;;;;;5.35;3.03;;;;;;;;;;5029684;28;20472;-75
2022/07/21 11:18:06;;;;;;;7.40;2.60;;;;;;;;;;5029925;28;20087;-74
2022/07/21 11:20:32;;;;;;;5.68;2.22;;;;;;;;;;5031205;28;20018;-76
2022/07/21 11:23:03;;;;;;;4.93;3.03;;;;;;;;;;5026895;28;20491;-77
2022/07/21 11:25:29;;;;;;;5.20;2.30;;;;;;;;;;5031034;28;20021;-76
2022/07/21 11:27:55;;;;;;;4.53;3.00;;;;;;;;;;5031103;28;20025;-79
2022/07/21 11:30:21;;;;;;;10.52;3.60;;;;;;;;;;5031516;28;20029;-76
2022/07/21 11:32:48;;;;;;;6.78;3.05;;;;;;;;;;5030030;28;20120;-78
2022/07/21 11:35:14;;;;;;;4.68;2.65;;;;;;;;;;5029539;28;20438;-79
2022/07/21 11:37:45;;;;;;;6.43;3.17;;;;;;;;;;5030488;28;20075;-77
2022/07/21 11:40:12;;;;;;;4.72;2.80;;;;;;;;;;5025699;28;20503;-76
2022/07/21 11:42:39;;;;;;;7.45;2.75;;;;;;;;;;5025886;28;20036;-76
2022/07/21 11:45:06;;;;;;;5.93;3.05;;;;;;;;;;5032256;28;20495;-75
2022/07/21 11:47:32;;;;;;;5.38;3.13;;;;;;;;;;5028505;28;20030;-79
2022/07/21 11:49:59;;;;;;;8.65;3.38;;;;;;;;;;5028330;28;20017;-77
2022/07/21 11:52:30;;;;;;;6.70;3.45;;;;;;;;;;5027922;28;20033;-78
2022/07/21 11:54:56;;;;;;;12.20;3.97;;;;;;;;;;5028953;28;20025;-78
2022/07/21 11:57:23;;;;;;;5.78;3.30;;;;;;;;;;5028037;28;20096;-78
2022/07/21 11:59:50;;;;;;;16.70;3.60;;;;;;;;;;5029338;28;20021;-78
2022/07/21 12:02:18;;;;;;;7.07;3.42;;;;;;;;;;5028599;28;20025;-79
2022/07/21 12:04:50;;;;;;;5.78;2.80;;;;;;;;;;5029749;28;20071;-79
2022/07/21 12:07:16;;;;;;;8.75;2.88;;;;;;;;;;5030787;28;20027;-77
2022/07/21 12:09:43;;;;;;;5.53;2.97;;;;;;;;;;5030806;28;20052;-76
2022/07/21 12:12:09;;;;;;;7.18;2.85;;;;;;;;;;5031751;28;20100;-79
2022/07/21 12:14:42;;;;;;;5.40;2.75;;;;;;;;;;5031328;28;20028;-77
2022/07/21 12:17:08;;;;;;;4.50;2.95;;;;;;;;;;5030428;28;20036;-74
2022/07/21 12:19:35;;;;;;;5.18;2.58;;;;;;;;;;5031145;28;20021;-73
2022/07/21 12:22:01;;;;;;;8.60;3.65;;;;;;;;;;5030898;28;20026;-76
2022/07/21 12:24:46;;;;;;;3.97;2.83;;;;;;;;;;5029787;28;20469;-74
2022/07/21 12:27:12;;;;;;;7.55;3.50;;;;;;;;;;5014864;28;20101;-73
2022/07/21 12:29:38;;;;;;;9.20;3.75;;;;;;;;;;5029697;28;20053;-74
2022/07/21 12:32:04;;;;;;;8.15;3.40;;;;;;;;;;5031117;28;20076;-74
2022/07/21 12:34:31;;;;;;;6.78;3.22;;;;;;;;;;5029345;28;20018;-75
2022/07/21 12:36:58;;;;;;;4.32;2.83;;;;;;;;;;5030293;28;20489;-74
2022/07/21 12:42:31;;;;;;;6.05;3.53;;;;;;;;;;5030583;28;20055;-75
2022/07/21 12:44:57;;;;;;;16.25;4.85;;;;;;;;;;5031030;28;20018;-74
2022/07/21 12:47:24;;;;;;;11.65;5.10;;;;;;;;;;5030940;28;20025;-74
2022/07/21 12:50:03;;;;;;;6.13;3.50;;;;;;;;;;5030668;28;20511;-75
2022/07/21 12:52:30;;;;;;;9.18;5.75;;;;;;;;;;5030607;28;20503;-75
2022/07/21 12:54:58;;;;;;;7.32;4.05;;;;;;;;;;5029506;28;20112;-74
2022/07/21 12:57:35;;;;;;;7.15;3.80;;;;;;;;;;5034231;28;20057;-75
2022/07/21 13:00:01;;;;;;;13.05;3.30;;;;;;;;;;5030416;28;20455;-76
2022/07/21 13:02:30;;;;;;;11.02;4.47;;;;;;;;;;5030950;28;20021;-75
2022/07/21 13:04:56;;;;;;;13.25;3.95;;;;;;;;;;5029481;28;20378;-74
2022/07/21 13:07:22;;;;;;;15.60;5.13;;;;;;;;;;5029396;28;20508;-74
2022/07/21 13:09:48;;;;;;;5.38;3.92;;;;;;;;;;5030577;28;20492;-75
2022/07/21 13:12:14;;;;;;;5.43;3.67;;;;;;;;;;5029942;28;20037;-74
2022/07/21 13:14:41;;;;;;;8.15;3.45;;;;;;;;;;5022355;28;20018;-73
2022/07/21 13:17:08;;;;;;;13.13;8.27;;;;;;;;;;5046462;28;20477;-74
2022/07/21 13:19:36;;;;;;;5.50;3.88;;;;;;;;;;5034194;28;20104;-75
2022/07/21 13:22:02;;;;;;;5.60;3.03;;;;;;;;;;5034240;28;20013;-75
2022/07/21 13:24:28;;;;;;;8.30;4.63;;;;;;;;;;5033202;28;20116;-74
2022/07/21 13:26:54;;;;;;;7.13;3.70;;;;;;;;;;5034492;28;20495;-75
2022/07/21 13:29:21;;;;;;;9.55;4.65;;;;;;;;;;5034128;28;20025;-74
2022/07/21 13:31:47;;;;;;;7.32;3.47;;;;;;;;;;5034237;28;20084;-77
2022/07/21 13:34:13;;;;;;;4.55;3.25;;;;;;;;;;5034068;28;20017;-75
2022/07/21 13:36:39;;;;;;;11.05;4.20;;;;;;;;;;5034046;28;20449;-74
2022/07/21 13:39:05;;;;;;;11.85;3.53;;;;;;;;;;5033652;28;20041;-75
2022/07/21 13:41:32;;;;;;;9.35;3.83;;;;;;;;;;5033971;28;20508;-75
2022/07/21 13:43:59;;;;;;;6.63;3.40;;;;;;;;;;5032654;28;20428;-78
2022/07/21 13:46:25;;;;;;;5.70;3.58;;;;;;;;;;5032087;28;20036;-74
2022/07/21 13:48:51;;;;;;;5.32;3.22;;;;;;;;;;5033649;28;20029;-75
2022/07/21 13:51:17;;;;;;;10.05;3.58;;;;;;;;;;5033518;28;20108;-75
2022/07/21 13:53:44;;;;;;;4.95;3.25;;;;;;;;;;5033764;28;20067;-74
2022/07/21 13:56:11;;;;;;;5.35;3.80;;;;;;;;;;5033795;28;20060;-74
2022/07/21 13:58:37;;;;;;;5.75;3.92;;;;;;;;;;5033601;28;20013;-74
2022/07/21 14:01:03;;;;;;;6.68;3.38;;;;;;;;;;5033583;28;20473;-75
2022/07/21 14:03:29;;;;;;;9.57;3.70;;;;;;;;;;5032851;28;20017;-73
2022/07/21 14:05:55;;;;;;;6.68;3.45;;;;;;;;;;5032401;28;20036;-75
2022/07/21 14:08:21;;;;;;;6.85;3.20;;;;;;;;;;5034437;28;20072;-75
2022/07/21 14:10:47;;;;;;;3.60;2.83;;;;;;;;;;5035549;28;20017;-75
2022/07/21 14:13:13;;;;;;;8.45;4.10;;;;;;;;;;5032881;28;20072;-73
2022/07/21 14:15:39;;;;;;;4.90;3.22;;;;;;;;;;5035345;28;20013;-75
2022/07/21 14:18:05;;;;;;;7.75;3.47;;;;;;;;;;5033440;28;20100;-74
2022/07/21 14:20:31;;;;;;;6.07;3.40;;;;;;;;;;5032227;28;20504;-74
2022/07/21 14:22:57;;;;;;;5.78;3.30;;;;;;;;;;5033518;28;20021;-74
2022/07/21 14:25:24;;;;;;;5.35;3.65;;;;;;;;;;5030596;28;20025;-74
2022/07/21 14:27:51;;;;;;;5.22;3.92;;;;;;;;;;5034683;28;20018;-74
2022/07/21 14:30:17;;;;;;;10.15;3.45;;;;;;;;;;5019321;28;20537;-74
2022/07/21 14:32:44;;;;;;;13.02;3.78;;;;;;;;;;5030755;28;20083;-74
2022/07/21 14:35:10;;;;;;;7.38;3.60;;;;;;;;;;5030198;28;20078;-73
2022/07/21 14:37:36;;;;;;;8.60;3.40;;;;;;;;;;5031495;28;20028;-73
2022/07/21 14:40:03;;;;;;;5.63;3.65;;;;;;;;;;5032486;28;20026;-73
2022/07/21 14:42:29;;;;;;;4.45;3.10;;;;;;;;;;5031132;28;20362;-75